Time;durP1;ratioP1;P1;durP2;ratioP2;P2;SDS_P1;SDS_P2;PMS_P1;PMS_P2;Temp;Humidity;BMP_temperature;BMP_pressure;BME280_temperature;BME280_humidity;BME280_pressure;Samples;Min_cycle;Max_cycle;Signal;HPM_P1;HPM_P2
2022/07/28 20:25:52;;;;;;;3.60;1.60;;;;;;;;;;61559;26;1463;-87
2022/07/28 20:26:28;;;;;;;5.82;1.84;;;;;;;;;;170326;28;10002498;-87
2022/07/28 20:26:44;;;;;;;6.47;1.83;;;;;;;;;;512813;28;1829;-88
2022/07/28 20:27:02;;;;;;;5.57;1.60;;;;;;;;;;513733;28;1565;-87
2022/07/28 20:27:17;;;;;;;6.93;1.60;;;;;;;;;;511748;29;1304;-87
2022/07/28 20:27:34;;;;;;;6.70;1.60;;;;;;;;;;511803;29;1326;-87
2022/07/28 20:27:49;;;;;;;5.18;1.70;;;;;;;;;;511918;29;1468;-87
2022/07/28 20:28:05;;;;;;;4.40;1.80;;;;;;;;;;512020;29;1190;-88
2022/07/28 20:28:20;;;;;;;4.53;2.00;;;;;;;;;;513925;28;1344;-88
2022/07/28 20:28:39;;;;;;;5.30;1.98;;;;;;;;;;509951;29;1221;-87
2022/07/28 20:28:57;;;;;;;3.67;1.85;;;;;;;;;;506016;29;1401;-88
2022/07/28 20:29:12;;;;;;;5.03;1.73;;;;;;;;;;509631;29;1547;-87
2022/07/28 20:29:28;;;;;;;8.13;1.70;;;;;;;;;;509584;29;1169;-87
2022/07/28 20:29:43;;;;;;;7.90;1.80;;;;;;;;;;509586;29;1313;-87
2022/07/28 20:29:59;;;;;;;5.82;1.88;;;;;;;;;;507775;29;1150;-87
2022/07/28 20:30:15;;;;;;;5.88;1.85;;;;;;;;;;509777;29;1555;-87
2022/07/28 20:30:32;;;;;;;7.30;1.70;;;;;;;;;;509830;29;1066;-87
2022/07/28 20:30:47;;;;;;;6.35;1.70;;;;;;;;;;509534;29;1405;-88
2022/07/28 20:31:04;;;;;;;6.20;1.80;;;;;;;;;;508022;29;1198;-87
2022/07/28 20:31:20;;;;;;;5.95;1.70;;;;;;;;;;507992;29;1275;-87
2022/07/28 20:31:35;;;;;;;5.20;1.80;;;;;;;;;;509954;29;1254;-87
2022/07/28 20:31:51;;;;;;;5.47;1.90;;;;;;;;;;508002;29;1373;-87
2022/07/28 20:32:07;;;;;;;5.57;1.80;;;;;;;;;;507535;29;1380;-87
2022/07/28 20:32:22;;;;;;;4.55;1.88;;;;;;;;;;511622;29;1428;-87
2022/07/28 20:32:38;;;;;;;3.77;1.77;;;;;;;;;;511905;29;852;-87
2022/07/28 20:32:54;;;;;;;3.83;1.52;;;;;;;;;;511868;29;1481;-87
2022/07/28 20:33:09;;;;;;;4.37;1.43;;;;;;;;;;509786;29;1397;-87
2022/07/28 20:33:24;;;;;;;4.77;1.60;;;;;;;;;;509879;29;1319;-87
2022/07/28 20:33:40;;;;;;;7.57;1.75;;;;;;;;;;510087;29;1355;-87
2022/07/28 20:33:57;;;;;;;7.43;1.70;;;;;;;;;;510012;29;1214;-87
2022/07/28 20:34:13;;;;;;;4.82;1.70;;;;;;;;;;507941;29;1264;-87
2022/07/28 20:34:29;;;;;;;5.17;1.70;;;;;;;;;;509888;29;1293;-87
2022/07/28 20:34:45;;;;;;;5.75;1.60;;;;;;;;;;509919;29;1342;-87
2022/07/28 20:35:01;;;;;;;4.47;1.60;;;;;;;;;;509989;29;1205;-87
2022/07/28 20:35:16;;;;;;;5.20;1.70;;;;;;;;;;510011;29;1412;-89
2022/07/28 20:35:32;;;;;;;9.10;1.70;;;;;;;;;;508053;29;1218;-88
2022/07/28 20:35:48;;;;;;;8.70;1.60;;;;;;;;;;507756;29;1298;-87
2022/07/28 20:36:04;;;;;;;4.80;1.60;;;;;;;;;;507794;29;1362;-87
2022/07/28 20:36:19;;;;;;;5.07;1.87;;;;;;;;;;507812;29;868;-87
2022/07/28 20:36:35;;;;;;;5.63;1.73;;;;;;;;;;505957;29;1263;-88
2022/07/28 20:36:52;;;;;;;5.85;1.58;;;;;;;;;;507894;29;1223;-87
2022/07/28 20:37:09;;;;;;;6.40;1.70;;;;;;;;;;509864;29;1534;-87
2022/07/28 20:37:25;;;;;;;6.07;1.60;;;;;;;;;;509848;29;1396;-87
2022/07/28 20:37:40;;;;;;;4.63;1.40;;;;;;;;;;507841;29;1305;-87
2022/07/28 20:37:55;;;;;;;5.17;1.50;;;;;;;;;;507920;29;1261;-87
2022/07/28 20:38:11;;;;;;;6.03;1.60;;;;;;;;;;506188;29;1322;-87
2022/07/28 20:38:26;;;;;;;5.88;1.65;;;;;;;;;;503853;29;1305;-87
2022/07/28 20:38:43;;;;;;;4.83;1.57;;;;;;;;;;508161;29;1455;-87
2022/07/28 20:38:59;;;;;;;7.55;1.75;;;;;;;;;;503798;29;1360;-88
2022/07/28 20:39:14;;;;;;;7.22;1.75;;;;;;;;;;506347;29;1363;-87
2022/07/28 20:39:30;;;;;;;4.67;1.60;;;;;;;;;;508098;29;971;-87
2022/07/28 20:39:45;;;;;;;3.95;1.77;;;;;;;;;;508005;29;1122;-87
2022/07/28 20:40:01;;;;;;;4.43;1.70;;;;;;;;;;508714;29;1042;-87
2022/07/28 20:40:16;;;;;;;5.63;1.63;;;;;;;;;;510393;29;1448;-89
2022/07/28 20:40:32;;;;;;;6.72;1.63;;;;;;;;;;510029;29;1390;-88
2022/07/28 20:40:47;;;;;;;5.40;1.57;;;;;;;;;;510257;29;1449;-88
2022/07/28 20:41:02;;;;;;;4.75;1.63;;;;;;;;;;508507;29;967;-88
2022/07/28 20:41:18;;;;;;;4.33;1.67;;;;;;;;;;508653;29;1445;-89
2022/07/28 20:41:33;;;;;;;3.80;1.40;;;;;;;;;;510220;29;1406;-88
2022/07/28 20:41:49;;;;;;;4.37;1.50;;;;;;;;;;512157;29;1420;-88
2022/07/28 20:42:06;;;;;;;3.97;1.60;;;;;;;;;;513638;28;1424;-89
2022/07/28 20:42:22;;;;;;;3.70;1.60;;;;;;;;;;512183;29;1427;-88
2022/07/28 20:42:37;;;;;;;6.40;1.60;;;;;;;;;;510842;29;1257;-88
2022/07/28 20:42:53;;;;;;;7.05;1.60;;;;;;;;;;510322;29;1221;-88
2022/07/28 20:43:08;;;;;;;6.90;1.70;;;;;;;;;;509710;29;1236;-88
2022/07/28 20:43:24;;;;;;;7.07;1.90;;;;;;;;;;510391;29;967;-89
2022/07/28 20:43:39;;;;;;;5.93;1.80;;;;;;;;;;509922;29;1385;-92
2022/07/28 20:43:55;;;;;;;5.97;1.60;;;;;;;;;;510063;29;1222;-91
2022/07/28 20:44:10;;;;;;;6.70;1.73;;;;;;;;;;510952;29;1383;-87
2022/07/28 20:44:26;;;;;;;5.82;1.80;;;;;;;;;;506042;29;1238;-88
2022/07/28 20:44:41;;;;;;;6.30;1.70;;;;;;;;;;509857;29;1341;-88
2022/07/28 20:44:56;;;;;;;5.13;1.60;;;;;;;;;;509934;29;1210;-88
2022/07/28 20:45:12;;;;;;;2.93;1.40;;;;;;;;;;509922;29;869;-88
2022/07/28 20:45:27;;;;;;;3.30;1.50;;;;;;;;;;510028;29;813;-87
2022/07/28 20:45:46;;;;;;;4.70;1.80;;;;;;;;;;507440;29;1421;-88
2022/07/28 20:46:01;;;;;;;5.50;1.70;;;;;;;;;;507819;29;1336;-87
2022/07/28 20:46:22;;;;;;;4.47;1.70;;;;;;;;;;509553;29;833;-87
2022/07/28 20:46:38;;;;;;;5.28;1.80;;;;;;;;;;509670;29;1922;-87
2022/07/28 20:47:01;;;;;;;4.78;1.80;;;;;;;;;;509685;29;1289;-87
2022/07/28 20:47:17;;;;;;;5.00;1.75;;;;;;;;;;507920;29;1307;-87
2022/07/28 20:47:33;;;;;;;6.07;1.73;;;;;;;;;;507943;29;1229;-87
2022/07/28 20:47:49;;;;;;;5.35;1.70;;;;;;;;;;508152;29;904;-87
2022/07/28 20:48:05;;;;;;;6.67;1.73;;;;;;;;;;508030;29;1282;-87
2022/07/28 20:48:21;;;;;;;8.10;1.90;;;;;;;;;;509407;29;1491;-87
2022/07/28 20:48:36;;;;;;;5.77;1.70;;;;;;;;;;511881;29;1436;-87
2022/07/28 20:48:52;;;;;;;3.50;1.67;;;;;;;;;;511926;29;1264;-87
2022/07/28 20:49:07;;;;;;;3.83;1.80;;;;;;;;;;511992;29;848;-86
2022/07/28 20:49:24;;;;;;;4.95;1.80;;;;;;;;;;511327;29;1427;-87
2022/07/28 20:49:42;;;;;;;4.47;1.67;;;;;;;;;;510250;29;1039;-87
2022/07/28 20:49:57;;;;;;;4.45;1.50;;;;;;;;;;511968;29;1423;-88
2022/07/28 20:50:13;;;;;;;3.70;1.53;;;;;;;;;;511308;29;1370;-88
2022/07/28 20:50:29;;;;;;;3.88;1.60;;;;;;;;;;510572;29;1191;-88
2022/07/28 20:50:45;;;;;;;5.28;1.60;;;;;;;;;;511835;29;1380;-88
2022/07/28 20:51:00;;;;;;;4.03;1.60;;;;;;;;;;510036;29;1206;-88
2022/07/28 20:51:19;;;;;;;3.70;1.60;;;;;;;;;;507963;29;1218;-88
2022/07/28 20:51:34;;;;;;;4.55;1.60;;;;;;;;;;506088;29;1264;-88
2022/07/28 20:51:49;;;;;;;5.10;1.60;;;;;;;;;;507901;29;1167;-88
2022/07/28 20:52:05;;;;;;;5.20;1.52;;;;;;;;;;509691;29;1317;-88
2022/07/28 20:52:22;;;;;;;4.13;1.60;;;;;;;;;;507694;29;1202;-88
2022/07/28 20:52:38;;;;;;;4.45;1.70;;;;;;;;;;507728;29;1286;-88
2022/07/28 20:52:54;;;;;;;7.07;1.83;;;;;;;;;;509734;29;1401;-88
2022/07/28 20:53:09;;;;;;;7.00;1.80;;;;;;;;;;511890;29;1210;-88
2022/07/28 20:53:25;;;;;;;7.83;1.80;;;;;;;;;;510077;29;1176;-88
2022/07/28 20:53:40;;;;;;;6.60;1.90;;;;;;;;;;509920;29;892;-88
2022/07/28 20:53:55;;;;;;;5.27;2.03;;;;;;;;;;509997;29;1158;-88
2022/07/28 20:54:11;;;;;;;5.60;1.97;;;;;;;;;;511935;29;1301;-88
2022/07/28 20:54:26;;;;;;;5.85;1.70;;;;;;;;;;509872;29;1186;-88
2022/07/28 20:54:42;;;;;;;7.87;1.83;;;;;;;;;;508073;29;1276;-88
2022/07/28 20:54:57;;;;;;;10.02;1.90;;;;;;;;;;506100;29;1328;-88
2022/07/28 20:55:12;;;;;;;8.10;2.00;;;;;;;;;;507992;29;1213;-88
2022/07/28 20:55:28;;;;;;;6.70;1.93;;;;;;;;;;507938;29;919;-88
2022/07/28 20:55:44;;;;;;;7.32;1.65;;;;;;;;;;508103;29;1321;-88
2022/07/28 20:55:59;;;;;;;9.60;1.90;;;;;;;;;;508154;29;1374;-87
2022/07/28 20:56:15;;;;;;;9.43;1.80;;;;;;;;;;510553;29;1168;-88
2022/07/28 20:56:30;;;;;;;6.25;1.65;;;;;;;;;;507946;29;1250;-88
2022/07/28 20:56:46;;;;;;;5.17;1.73;;;;;;;;;;510015;29;1491;-88
2022/07/28 20:57:01;;;;;;;4.05;1.70;;;;;;;;;;509837;29;1241;-88
2022/07/28 20:57:17;;;;;;;7.77;1.80;;;;;;;;;;510048;29;899;-88
2022/07/28 20:57:32;;;;;;;7.95;1.80;;;;;;;;;;508049;29;1231;-88
2022/07/28 20:57:48;;;;;;;4.63;1.60;;;;;;;;;;508230;29;726;-87
2022/07/28 20:58:04;;;;;;;6.85;1.60;;;;;;;;;;508339;29;1242;-88
2022/07/28 20:58:20;;;;;;;5.85;1.55;;;;;;;;;;508519;29;1388;-88
2022/07/28 20:58:35;;;;;;;4.97;1.60;;;;;;;;;;511982;29;1289;-88
2022/07/28 20:58:51;;;;;;;4.53;1.80;;;;;;;;;;512492;28;1244;-87
2022/07/28 20:59:06;;;;;;;4.13;1.70;;;;;;;;;;514012;28;1194;-88
2022/07/28 20:59:23;;;;;;;4.15;1.60;;;;;;;;;;511925;29;1389;-88
2022/07/28 20:59:38;;;;;;;5.27;1.77;;;;;;;;;;510018;29;1403;-88
2022/07/28 20:59:54;;;;;;;6.00;1.70;;;;;;;;;;511953;29;1280;-88
2022/07/28 21:00:09;;;;;;;7.53;1.83;;;;;;;;;;511928;29;1293;-88
2022/07/28 21:00:25;;;;;;;9.48;2.10;;;;;;;;;;511871;29;1328;-87
2022/07/28 21:00:40;;;;;;;7.67;2.07;;;;;;;;;;511990;29;1138;-88
2022/07/28 21:00:56;;;;;;;4.95;1.80;;;;;;;;;;508035;29;1203;-88
2022/07/28 21:01:12;;;;;;;6.30;1.77;;;;;;;;;;511959;29;1435;-88
2022/07/28 21:01:28;;;;;;;7.47;1.95;;;;;;;;;;507990;29;1416;-88
2022/07/28 21:01:43;;;;;;;6.07;1.83;;;;;;;;;;504324;29;1201;-88
2022/07/28 21:01:59;;;;;;;6.00;1.73;;;;;;;;;;504111;29;1285;-88
2022/07/28 21:02:14;;;;;;;6.23;1.70;;;;;;;;;;504583;29;1219;-86
2022/07/28 21:02:29;;;;;;;5.47;1.63;;;;;;;;;;508117;29;1154;-87
2022/07/28 21:02:45;;;;;;;5.13;1.53;;;;;;;;;;507845;29;1267;-88
2022/07/28 21:03:00;;;;;;;4.63;1.67;;;;;;;;;;508129;29;810;-87
2022/07/28 21:03:16;;;;;;;6.80;1.80;;;;;;;;;;508245;29;1004;-87
2022/07/28 21:03:31;;;;;;;10.30;2.08;;;;;;;;;;510156;29;1226;-87
2022/07/28 21:03:47;;;;;;;11.13;2.40;;;;;;;;;;512095;29;1222;-87
2022/07/28 21:04:02;;;;;;;10.70;2.30;;;;;;;;;;509947;29;1170;-87
2022/07/28 21:04:19;;;;;;;11.90;2.20;;;;;;;;;;509810;29;1201;-87
2022/07/28 21:04:34;;;;;;;15.98;2.30;;;;;;;;;;508382;29;1257;-87
2022/07/28 21:04:50;;;;;;;17.77;2.60;;;;;;;;;;508018;29;1428;-87
2022/07/28 21:05:07;;;;;;;18.70;2.83;;;;;;;;;;509891;29;1289;-87
2022/07/28 21:05:22;;;;;;;17.77;2.85;;;;;;;;;;511936;29;1230;-87
2022/07/28 21:05:38;;;;;;;14.32;2.42;;;;;;;;;;511886;29;805;-87
2022/07/28 21:05:53;;;;;;;14.10;2.27;;;;;;;;;;511950;28;1153;-87
2022/07/28 21:06:09;;;;;;;20.17;2.65;;;;;;;;;;511841;29;1213;-87
2022/07/28 21:06:24;;;;;;;22.50;2.80;;;;;;;;;;508102;29;1672;-87
2022/07/28 21:06:40;;;;;;;16.97;2.70;;;;;;;;;;508399;29;1907;-87
2022/07/28 21:06:55;;;;;;;16.98;2.63;;;;;;;;;;512302;28;1322;-87
2022/07/28 21:07:11;;;;;;;13.40;2.40;;;;;;;;;;513466;28;1371;-87
2022/07/28 21:07:26;;;;;;;11.80;2.30;;;;;;;;;;511935;29;892;-87
2022/07/28 21:07:42;;;;;;;13.37;2.30;;;;;;;;;;510221;29;1330;-88
2022/07/28 21:07:58;;;;;;;9.80;2.20;;;;;;;;;;511609;29;841;-88
2022/07/28 21:08:13;;;;;;;8.20;2.17;;;;;;;;;;507930;29;1260;-87
2022/07/28 21:08:29;;;;;;;8.63;2.00;;;;;;;;;;510060;29;1365;-87
2022/07/28 21:08:44;;;;;;;6.18;1.80;;;;;;;;;;510529;29;884;-87
2022/07/28 21:09:00;;;;;;;5.13;1.73;;;;;;;;;;510019;29;1198;-87
2022/07/28 21:09:16;;;;;;;4.97;1.80;;;;;;;;;;509874;29;1368;-87
2022/07/28 21:09:31;;;;;;;5.23;1.80;;;;;;;;;;508477;29;1198;-87
2022/07/28 21:09:47;;;;;;;5.93;1.80;;;;;;;;;;510173;29;793;-87
2022/07/28 21:10:03;;;;;;;6.35;1.98;;;;;;;;;;510291;29;1416;-87
2022/07/28 21:10:19;;;;;;;5.53;2.10;;;;;;;;;;509368;29;1321;-87
2022/07/28 21:10:34;;;;;;;8.75;2.20;;;;;;;;;;509957;29;1184;-87
2022/07/28 21:10:51;;;;;;;9.67;1.93;;;;;;;;;;507882;29;1187;-88
2022/07/28 21:11:06;;;;;;;6.13;1.75;;;;;;;;;;508046;29;912;-87
2022/07/28 21:11:21;;;;;;;5.73;1.80;;;;;;;;;;506484;29;1181;-87
2022/07/28 21:11:37;;;;;;;5.93;2.00;;;;;;;;;;507842;29;1264;-87
2022/07/28 21:11:53;;;;;;;6.20;2.00;;;;;;;;;;508044;29;1010;-87
2022/07/28 21:12:09;;;;;;;6.07;1.85;;;;;;;;;;508424;29;1440;-87
2022/07/28 21:12:24;;;;;;;6.20;1.80;;;;;;;;;;509800;29;1235;-87
2022/07/28 21:12:40;;;;;;;6.37;1.63;;;;;;;;;;510388;29;1178;-87
2022/07/28 21:12:55;;;;;;;7.32;1.80;;;;;;;;;;511828;29;1226;-87
2022/07/28 21:13:11;;;;;;;6.40;1.90;;;;;;;;;;509902;29;1408;-87
2022/07/28 21:13:26;;;;;;;6.35;1.70;;;;;;;;;;509793;29;1167;-86
2022/07/28 21:13:42;;;;;;;6.80;1.73;;;;;;;;;;509894;29;836;-87
2022/07/28 21:13:57;;;;;;;7.60;1.80;;;;;;;;;;507864;29;1454;-87
2022/07/28 21:14:13;;;;;;;8.82;1.80;;;;;;;;;;509834;29;1522;-87
2022/07/28 21:14:28;;;;;;;7.73;1.93;;;;;;;;;;507831;29;1234;-87
2022/07/28 21:14:43;;;;;;;7.07;2.00;;;;;;;;;;507887;29;1354;-87
2022/07/28 21:14:59;;;;;;;10.77;2.00;;;;;;;;;;509841;29;1320;-88
2022/07/28 21:15:14;;;;;;;12.82;2.10;;;;;;;;;;505997;29;1340;-88
2022/07/28 21:15:30;;;;;;;8.67;2.00;;;;;;;;;;507801;29;1099;-87
2022/07/28 21:15:46;;;;;;;7.18;2.08;;;;;;;;;;509930;29;1203;-88
2022/07/28 21:16:01;;;;;;;7.57;1.97;;;;;;;;;;513961;28;1146;-88
2022/07/28 21:16:17;;;;;;;7.55;1.88;;;;;;;;;;515667;28;1313;-88
2022/07/28 21:16:32;;;;;;;7.03;1.92;;;;;;;;;;513916;28;1413;-87
2022/07/28 21:16:48;;;;;;;6.80;2.00;;;;;;;;;;514029;28;797;-88
2022/07/28 21:17:03;;;;;;;6.30;1.92;;;;;;;;;;509846;29;1487;-88
2022/07/28 21:17:19;;;;;;;5.97;2.00;;;;;;;;;;509212;29;1246;-88
2022/07/28 21:17:34;;;;;;;7.13;1.95;;;;;;;;;;509972;29;907;-88
2022/07/28 21:17:54;;;;;;;7.57;1.80;;;;;;;;;;508424;29;1189;-88
2022/07/28 21:18:09;;;;;;;5.53;1.88;;;;;;;;;;507971;29;1262;-88
2022/07/28 21:18:25;;;;;;;7.00;1.70;;;;;;;;;;508998;29;1323;-87
2022/07/28 21:18:40;;;;;;;9.87;1.80;;;;;;;;;;509966;29;1354;-88
2022/07/28 21:18:56;;;;;;;8.75;1.75;;;;;;;;;;509979;29;1281;-88
2022/07/28 21:19:11;;;;;;;6.83;1.70;;;;;;;;;;510974;29;926;-88
2022/07/28 21:19:27;;;;;;;9.65;1.88;;;;;;;;;;512049;29;794;-88
2022/07/28 21:19:42;;;;;;;8.70;1.90;;;;;;;;;;510971;29;1197;-89
2022/07/28 21:19:58;;;;;;;6.32;1.80;;;;;;;;;;512064;29;836;-87
2022/07/28 21:20:13;;;;;;;5.67;1.90;;;;;;;;;;511789;29;812;-87
2022/07/28 21:20:28;;;;;;;5.10;1.90;;;;;;;;;;511991;29;1356;-87
2022/07/28 21:20:44;;;;;;;4.93;1.70;;;;;;;;;;512147;28;1266;-87
2022/07/28 21:20:59;;;;;;;4.53;1.70;;;;;;;;;;512010;29;1327;-87
2022/07/28 21:21:15;;;;;;;5.68;1.70;;;;;;;;;;509918;29;1210;-87
2022/07/28 21:21:30;;;;;;;5.67;1.73;;;;;;;;;;510105;29;883;-88
2022/07/28 21:21:46;;;;;;;6.35;1.80;;;;;;;;;;509981;29;1359;-88
2022/07/28 21:22:01;;;;;;;6.50;1.83;;;;;;;;;;509659;29;1307;-87
2022/07/28 21:22:16;;;;;;;6.17;1.70;;;;;;;;;;507966;29;1365;-87
2022/07/28 21:22:32;;;;;;;6.32;1.73;;;;;;;;;;509790;29;1218;-88
2022/07/28 21:22:47;;;;;;;5.13;1.80;;;;;;;;;;509845;29;1214;-88
2022/07/28 21:23:03;;;;;;;6.22;1.85;;;;;;;;;;511791;29;1217;-87
2022/07/28 21:23:19;;;;;;;11.15;2.03;;;;;;;;;;513807;28;1301;-87
2022/07/28 21:23:35;;;;;;;16.77;2.37;;;;;;;;;;511720;28;1208;-87
2022/07/28 21:23:50;;;;;;;14.05;2.20;;;;;;;;;;511930;29;1161;-87
2022/07/28 21:24:06;;;;;;;6.32;1.80;;;;;;;;;;509901;29;1268;-88
2022/07/28 21:24:22;;;;;;;4.63;1.77;;;;;;;;;;509840;29;1344;-88
2022/07/28 21:24:37;;;;;;;5.03;1.80;;;;;;;;;;511824;29;1359;-87
2022/07/28 21:24:52;;;;;;;6.43;1.87;;;;;;;;;;511800;29;1225;-87
2022/07/28 21:25:08;;;;;;;6.80;1.95;;;;;;;;;;511926;29;1498;-87
2022/07/28 21:25:24;;;;;;;6.50;1.80;;;;;;;;;;512032;29;1014;-87
2022/07/28 21:25:39;;;;;;;6.82;1.70;;;;;;;;;;509865;28;1337;-87
2022/07/28 21:25:55;;;;;;;7.27;1.90;;;;;;;;;;511928;29;1306;-88
2022/07/28 21:26:11;;;;;;;6.20;1.90;;;;;;;;;;511906;29;1328;-87
2022/07/28 21:26:27;;;;;;;7.75;1.90;;;;;;;;;;511863;29;1308;-88
2022/07/28 21:26:43;;;;;;;9.43;2.00;;;;;;;;;;509846;29;1287;-88
2022/07/28 21:26:58;;;;;;;7.03;1.80;;;;;;;;;;507900;29;1308;-88
2022/07/28 21:27:16;;;;;;;8.00;2.00;;;;;;;;;;511849;29;1261;-88
2022/07/28 21:29:09;;;;;;;8.50;2.00;;;;;;;;;;511862;29;1233;-88
2022/07/28 21:29:16;;;;;;;3.63;1.70;;;;;;;;;;513837;28;816;-88
2022/07/28 21:29:31;;;;;;;3.38;1.67;;;;;;;;;;513705;28;1204;-88
2022/07/28 21:29:47;;;;;;;3.90;1.70;;;;;;;;;;514066;28;896;-88
2022/07/28 21:30:03;;;;;;;5.15;1.83;;;;;;;;;;514053;28;955;-88
2022/07/28 21:30:18;;;;;;;7.22;2.00;;;;;;;;;;513713;28;1098;-88
2022/07/28 21:30:34;;;;;;;7.03;2.03;;;;;;;;;;513898;28;896;-88
2022/07/28 21:30:49;;;;;;;4.90;1.90;;;;;;;;;;511881;29;1257;-88
2022/07/28 21:31:05;;;;;;;5.23;1.80;;;;;;;;;;511910;29;821;-88
2022/07/28 21:31:22;;;;;;;5.10;1.73;;;;;;;;;;510539;29;1387;-88
2022/07/28 21:31:39;;;;;;;5.22;1.90;;;;;;;;;;511906;28;1292;-88
2022/07/28 21:31:54;;;;;;;5.45;1.80;;;;;;;;;;511939;29;1392;-88
2022/07/28 21:32:09;;;;;;;4.63;1.80;;;;;;;;;;509995;29;1223;-88
2022/07/28 21:32:25;;;;;;;3.80;1.80;;;;;;;;;;510001;29;911;-88
2022/07/28 21:32:40;;;;;;;2.92;1.60;;;;;;;;;;508692;29;1186;-89
2022/07/28 21:32:56;;;;;;;3.13;1.60;;;;;;;;;;509856;29;1300;-89
2022/07/28 21:33:12;;;;;;;4.28;1.60;;;;;;;;;;510656;29;1341;-88
2022/07/28 21:33:27;;;;;;;5.20;1.60;;;;;;;;;;509916;29;1250;-88
2022/07/28 21:33:43;;;;;;;4.78;1.80;;;;;;;;;;509880;29;1520;-88
2022/07/28 21:33:58;;;;;;;3.30;1.70;;;;;;;;;;512173;29;1202;-88
2022/07/28 21:34:13;;;;;;;5.22;1.67;;;;;;;;;;511904;29;1277;-88
2022/07/28 21:34:29;;;;;;;5.90;1.90;;;;;;;;;;511974;29;1359;-88
2022/07/28 21:34:44;;;;;;;4.47;1.70;;;;;;;;;;511925;29;860;-88
2022/07/28 21:35:00;;;;;;;3.93;1.60;;;;;;;;;;509939;29;1507;-88
2022/07/28 21:35:15;;;;;;;4.38;1.60;;;;;;;;;;510364;29;920;-89
2022/07/28 21:35:31;;;;;;;4.13;1.67;;;;;;;;;;512335;28;1430;-88
2022/07/28 21:35:46;;;;;;;4.13;1.70;;;;;;;;;;511679;29;1195;-88
2022/07/28 21:36:02;;;;;;;5.97;1.83;;;;;;;;;;509980;29;1312;-88
2022/07/28 21:36:17;;;;;;;7.77;1.90;;;;;;;;;;507925;29;1288;-88
2022/07/28 21:36:33;;;;;;;6.82;2.00;;;;;;;;;;507925;29;1461;-89
2022/07/28 21:36:49;;;;;;;4.38;1.85;;;;;;;;;;509747;29;1233;-88
2022/07/28 21:37:05;;;;;;;4.70;1.70;;;;;;;;;;510026;29;1178;-88
2022/07/28 21:37:21;;;;;;;6.30;1.90;;;;;;;;;;509828;29;1435;-88
2022/07/28 21:37:58;;;;;;;5.80;1.87;;;;;;;;;;509802;29;1241;-89
2022/07/28 21:38:14;;;;;;;6.70;1.77;;;;;;;;;;509266;29;1365;-88
2022/07/28 21:38:29;;;;;;;6.70;1.67;;;;;;;;;;508084;29;1370;-88
2022/07/28 21:38:45;;;;;;;3.65;1.45;;;;;;;;;;507983;29;1323;-88
2022/07/28 21:39:01;;;;;;;3.00;1.50;;;;;;;;;;507985;29;1308;-88
2022/07/28 21:39:18;;;;;;;2.63;1.40;;;;;;;;;;509915;29;1548;-88
2022/07/28 21:39:35;;;;;;;2.85;1.30;;;;;;;;;;511414;29;952;-88
2022/07/28 21:39:50;;;;;;;3.20;1.40;;;;;;;;;;512098;29;943;-89
2022/07/28 21:40:07;;;;;;;3.55;1.42;;;;;;;;;;509974;29;1259;-89
2022/07/28 21:40:22;;;;;;;3.88;1.50;;;;;;;;;;509989;29;1353;-89
2022/07/28 21:40:38;;;;;;;3.22;1.50;;;;;;;;;;510950;29;1332;-89
2022/07/28 21:40:53;;;;;;;4.07;1.60;;;;;;;;;;509773;29;1491;-89
2022/07/28 21:41:09;;;;;;;4.70;1.73;;;;;;;;;;510782;29;817;-89
2022/07/28 21:41:24;;;;;;;4.87;1.67;;;;;;;;;;509777;29;1258;-88
2022/07/28 21:41:40;;;;;;;4.82;1.60;;;;;;;;;;509789;29;1363;-88
2022/07/28 21:41:56;;;;;;;3.47;1.43;;;;;;;;;;509857;29;1292;-88
2022/07/28 21:42:11;;;;;;;2.92;1.50;;;;;;;;;;508090;29;1217;-88
2022/07/28 21:42:26;;;;;;;3.17;1.70;;;;;;;;;;508161;29;896;-88
2022/07/28 21:42:42;;;;;;;3.80;1.73;;;;;;;;;;507973;29;1406;-89
2022/07/28 21:42:58;;;;;;;4.83;1.70;;;;;;;;;;508043;29;1297;-88
2022/07/28 21:43:14;;;;;;;4.50;1.80;;;;;;;;;;508030;29;1227;-88
2022/07/28 21:43:29;;;;;;;3.38;1.70;;;;;;;;;;508451;29;975;-88
2022/07/28 21:43:45;;;;;;;3.63;1.60;;;;;;;;;;508344;29;1241;-88
2022/07/28 21:44:01;;;;;;;4.97;1.80;;;;;;;;;;508152;29;1233;-88
2022/07/28 21:44:16;;;;;;;4.80;1.80;;;;;;;;;;509869;29;1272;-88
2022/07/28 21:44:32;;;;;;;3.58;1.70;;;;;;;;;;509762;29;1347;-88
2022/07/28 21:44:47;;;;;;;2.53;1.60;;;;;;;;;;507721;29;1336;-88
2022/07/28 21:45:05;;;;;;;2.23;1.43;;;;;;;;;;507782;29;1175;-89
2022/07/28 21:45:21;;;;;;;3.45;1.50;;;;;;;;;;507968;29;1130;-89
2022/07/28 21:45:36;;;;;;;3.63;1.50;;;;;;;;;;507779;29;1206;-88
2022/07/28 21:45:52;;;;;;;3.03;1.50;;;;;;;;;;508607;29;944;-88
2022/07/28 21:46:07;;;;;;;3.17;1.60;;;;;;;;;;509697;29;1309;-88
2022/07/28 21:46:24;;;;;;;3.03;1.60;;;;;;;;;;509679;29;1342;-89
2022/07/28 21:46:42;;;;;;;3.38;1.80;;;;;;;;;;510577;29;1968;-88
2022/07/28 21:46:59;;;;;;;3.90;1.75;;;;;;;;;;511604;29;1317;-88
2022/07/28 21:47:14;;;;;;;3.63;1.67;;;;;;;;;;509632;29;1392;-89
2022/07/28 21:47:30;;;;;;;3.37;1.70;;;;;;;;;;510678;29;1193;-88
2022/07/28 21:47:45;;;;;;;4.63;1.70;;;;;;;;;;509618;29;1243;-88
2022/07/28 21:48:03;;;;;;;4.43;1.60;;;;;;;;;;510943;29;888;-88
2022/07/28 21:48:22;;;;;;;2.80;1.42;;;;;;;;;;511699;29;1465;-88
2022/07/28 21:48:37;;;;;;;2.95;1.52;;;;;;;;;;509724;29;1491;-88
2022/07/28 21:48:57;;;;;;;3.77;1.57;;;;;;;;;;509925;29;1317;-89
2022/07/28 21:49:13;;;;;;;3.45;1.70;;;;;;;;;;509793;29;1114;-88
2022/07/28 21:49:29;;;;;;;3.30;1.80;;;;;;;;;;507814;29;1346;-89
2022/07/28 21:49:45;;;;;;;3.83;1.70;;;;;;;;;;509581;29;1378;-88
2022/07/28 21:50:00;;;;;;;3.42;1.60;;;;;;;;;;509714;29;1506;-89
2022/07/28 21:50:16;;;;;;;3.53;1.50;;;;;;;;;;511911;29;1261;-89
2022/07/28 21:50:31;;;;;;;3.28;1.55;;;;;;;;;;514031;28;1220;-88
2022/07/28 21:50:47;;;;;;;3.13;1.77;;;;;;;;;;512892;28;812;-88
2022/07/28 21:51:02;;;;;;;2.40;1.65;;;;;;;;;;513800;28;1089;-89
2022/07/28 21:51:19;;;;;;;3.20;1.50;;;;;;;;;;513953;28;745;-88
2022/07/28 21:51:34;;;;;;;3.30;1.60;;;;;;;;;;511882;29;1297;-89
2022/07/28 21:51:50;;;;;;;3.80;1.70;;;;;;;;;;511832;29;1047;-88
2022/07/28 21:52:05;;;;;;;4.40;1.70;;;;;;;;;;512257;28;1350;-88
2022/07/28 21:52:20;;;;;;;4.22;1.70;;;;;;;;;;513962;28;1220;-89
2022/07/28 21:52:36;;;;;;;3.87;1.80;;;;;;;;;;513784;28;1189;-89
2022/07/28 21:52:52;;;;;;;3.22;1.75;;;;;;;;;;513775;28;1244;-88
2022/07/28 21:53:07;;;;;;;4.43;1.60;;;;;;;;;;511704;29;1370;-89
2022/07/28 21:53:23;;;;;;;4.27;1.57;;;;;;;;;;512221;29;976;-89
2022/07/28 21:53:40;;;;;;;2.55;1.55;;;;;;;;;;512070;29;1304;-88
2022/07/28 21:53:58;;;;;;;2.80;1.50;;;;;;;;;;514083;28;1268;-89
2022/07/28 21:54:14;;;;;;;2.63;1.50;;;;;;;;;;510084;29;1309;-88
2022/07/28 21:54:29;;;;;;;3.67;1.60;;;;;;;;;;508202;29;1200;-88
2022/07/28 21:54:45;;;;;;;4.95;1.50;;;;;;;;;;508297;29;1232;-88
2022/07/28 21:55:01;;;;;;;4.60;1.60;;;;;;;;;;506323;29;1274;-88
2022/07/28 21:55:16;;;;;;;3.35;1.70;;;;;;;;;;506379;29;1317;-88
2022/07/28 21:55:32;;;;;;;2.83;1.60;;;;;;;;;;508278;29;1305;-88
2022/07/28 21:55:48;;;;;;;2.90;1.70;;;;;;;;;;508298;29;1369;-88
2022/07/28 21:56:03;;;;;;;3.78;1.80;;;;;;;;;;508245;29;1306;-89
2022/07/28 21:56:19;;;;;;;3.63;1.67;;;;;;;;;;510307;29;1372;-88
2022/07/28 21:56:34;;;;;;;2.63;1.60;;;;;;;;;;512231;29;1293;-88
2022/07/28 21:56:50;;;;;;;3.05;1.70;;;;;;;;;;512315;29;943;-88
2022/07/28 21:57:09;;;;;;;5.50;1.80;;;;;;;;;;512119;29;1328;-88
2022/07/28 21:57:25;;;;;;;4.22;1.60;;;;;;;;;;512117;29;1484;-88
2022/07/28 21:57:41;;;;;;;3.03;1.50;;;;;;;;;;512110;29;1264;-88
2022/07/28 21:57:56;;;;;;;2.87;1.70;;;;;;;;;;514265;28;1306;-88
2022/07/28 21:58:13;;;;;;;3.45;1.85;;;;;;;;;;512289;29;1281;-88
2022/07/28 21:58:29;;;;;;;3.63;1.90;;;;;;;;;;512324;29;1676;-88
2022/07/28 21:58:45;;;;;;;4.53;1.90;;;;;;;;;;510203;29;1316;-88
2022/07/28 21:59:01;;;;;;;4.55;1.90;;;;;;;;;;510355;29;1341;-88
2022/07/28 21:59:16;;;;;;;2.80;1.73;;;;;;;;;;509259;29;1249;-88
2022/07/28 21:59:33;;;;;;;2.53;1.70;;;;;;;;;;512187;29;1367;-88
2022/07/28 21:59:48;;;;;;;3.25;1.60;;;;;;;;;;510281;29;1468;-88
2022/07/28 22:00:10;;;;;;;4.32;1.60;;;;;;;;;;510140;29;1262;-88
2022/07/28 22:00:26;;;;;;;3.25;1.60;;;;;;;;;;510224;29;1391;-88
2022/07/28 22:00:41;;;;;;;3.10;1.80;;;;;;;;;;508354;29;1222;-88
2022/07/28 22:00:57;;;;;;;3.03;1.70;;;;;;;;;;512223;29;1170;-88
2022/07/28 22:01:13;;;;;;;2.70;1.60;;;;;;;;;;512261;29;982;-88
2022/07/28 22:01:28;;;;;;;3.00;1.40;;;;;;;;;;510316;29;1246;-88
2022/07/28 22:01:44;;;;;;;4.00;1.42;;;;;;;;;;512373;29;1271;-88
2022/07/28 22:01:59;;;;;;;5.27;1.70;;;;;;;;;;513982;28;1424;-88
2022/07/28 22:02:15;;;;;;;4.80;1.70;;;;;;;;;;510241;29;1242;-88
2022/07/28 22:02:30;;;;;;;3.30;1.50;;;;;;;;;;508250;29;1271;-88
2022/07/28 22:02:46;;;;;;;2.38;1.50;;;;;;;;;;508280;29;1298;-88
2022/07/28 22:03:01;;;;;;;3.07;1.50;;;;;;;;;;508163;29;1151;-88
2022/07/28 22:03:17;;;;;;;3.47;1.73;;;;;;;;;;511278;29;1190;-88
2022/07/28 22:03:33;;;;;;;2.93;1.80;;;;;;;;;;510284;29;1194;-88
2022/07/28 22:03:48;;;;;;;2.25;1.50;;;;;;;;;;512205;29;1430;-88
2022/07/28 22:04:04;;;;;;;3.67;1.70;;;;;;;;;;512228;29;1352;-88
2022/07/28 22:04:19;;;;;;;3.63;1.70;;;;;;;;;;510225;29;1151;-88
2022/07/28 22:04:35;;;;;;;2.80;1.60;;;;;;;;;;510131;29;1154;-88
2022/07/28 22:04:50;;;;;;;3.53;1.58;;;;;;;;;;510277;29;1405;-88
2022/07/28 22:05:06;;;;;;;3.47;1.60;;;;;;;;;;510210;29;1346;-88
2022/07/28 22:05:21;;;;;;;2.83;1.70;;;;;;;;;;510140;29;1320;-88
2022/07/28 22:05:37;;;;;;;3.30;1.73;;;;;;;;;;510339;29;1210;-88
2022/07/28 22:05:52;;;;;;;3.60;1.80;;;;;;;;;;514360;28;1329;-88